Terminal Aerodrome Forecast
Issued by NWS Austin/San Antonio, TX

Home | Current Version | Previous Version | Text Only | Print | Product List | Glossary On
Versions: 1 2 3 4 5 6 7 8 9 10 11 12 13
000
FTUS44 KEWX 191133
TAFAUS
TAF
KAUS 191133Z 1912/2018 VRB03KT P6SM BKN025
     FM191600 13007KT P6SM SCT040
     FM200800 13005KT P6SM BKN020
     FM201100 15003KT 4SM BR BKN008=

USA.gov is the U.S. government's official web portal to all federal, state and local government web resources and services.